sensor_id;sensor_type;location;lat;lon;timestamp;P1;durP1;ratioP1;P2;durP2;ratioP2
49071;SDS011;52656;52.610;10.236;2023-04-25T00:01:57;10.38;;;5.00;;
49071;SDS011;52656;52.610;10.236;2023-04-25T00:04:22;8.63;;;4.45;;
49071;SDS011;52656;52.610;10.236;2023-04-25T00:06:47;10.55;;;5.05;;
49071;SDS011;52656;52.610;10.236;2023-04-25T00:09:13;10.80;;;4.85;;
49071;SDS011;52656;52.610;10.236;2023-04-25T00:11:39;10.30;;;4.60;;
49071;SDS011;52656;52.610;10.236;2023-04-25T00:14:05;12.70;;;5.40;;
49071;SDS011;52656;52.610;10.236;2023-04-25T00:16:31;10.45;;;3.85;;
49071;SDS011;52656;52.610;10.236;2023-04-25T00:18:58;9.20;;;4.90;;
49071;SDS011;52656;52.610;10.236;2023-04-25T00:21:24;11.65;;;4.82;;
49071;SDS011;52656;52.610;10.236;2023-04-25T00:23:50;13.65;;;4.43;;
49071;SDS011;52656;52.610;10.236;2023-04-25T00:26:17;9.70;;;5.30;;
49071;SDS011;52656;52.610;10.236;2023-04-25T00:28:43;10.88;;;5.38;;
49071;SDS011;52656;52.610;10.236;2023-04-25T00:31:08;11.40;;;4.43;;
49071;SDS011;52656;52.610;10.236;2023-04-25T00:33:33;13.02;;;5.32;;
49071;SDS011;52656;52.610;10.236;2023-04-25T00:35:59;14.27;;;5.07;;
49071;SDS011;52656;52.610;10.236;2023-04-25T00:38:25;11.48;;;5.22;;
49071;SDS011;52656;52.610;10.236;2023-04-25T00:40:50;11.03;;;4.93;;
49071;SDS011;52656;52.610;10.236;2023-04-25T00:43:15;12.93;;;5.53;;
49071;SDS011;52656;52.610;10.236;2023-04-25T00:45:41;15.57;;;5.10;;
49071;SDS011;52656;52.610;10.236;2023-04-25T00:48:08;13.00;;;5.32;;
49071;SDS011;52656;52.610;10.236;2023-04-25T00:50:33;13.73;;;5.72;;
49071;SDS011;52656;52.610;10.236;2023-04-25T00:52:59;11.85;;;5.00;;
49071;SDS011;52656;52.610;10.236;2023-04-25T00:55:25;16.05;;;5.82;;
49071;SDS011;52656;52.610;10.236;2023-04-25T00:57:52;11.82;;;5.05;;
49071;SDS011;52656;52.610;10.236;2023-04-25T01:00:17;14.60;;;6.40;;
49071;SDS011;52656;52.610;10.236;2023-04-25T01:02:44;13.95;;;5.95;;
49071;SDS011;52656;52.610;10.236;2023-04-25T01:05:09;10.85;;;4.60;;
49071;SDS011;52656;52.610;10.236;2023-04-25T01:07:36;14.82;;;5.63;;
49071;SDS011;52656;52.610;10.236;2023-04-25T01:10:02;13.15;;;5.45;;
49071;SDS011;52656;52.610;10.236;2023-04-25T01:12:28;13.43;;;5.30;;
49071;SDS011;52656;52.610;10.236;2023-04-25T01:14:53;13.30;;;5.28;;
49071;SDS011;52656;52.610;10.236;2023-04-25T01:17:19;13.68;;;5.47;;
49071;SDS011;52656;52.610;10.236;2023-04-25T01:19:45;10.65;;;4.68;;
49071;SDS011;52656;52.610;10.236;2023-04-25T01:22:13;13.32;;;5.28;;
49071;SDS011;52656;52.610;10.236;2023-04-25T01:27:04;16.67;;;6.50;;
49071;SDS011;52656;52.610;10.236;2023-04-25T01:29:31;13.77;;;5.63;;
49071;SDS011;52656;52.610;10.236;2023-04-25T01:31:57;14.18;;;5.95;;
49071;SDS011;52656;52.610;10.236;2023-04-25T01:36:49;15.88;;;5.57;;
49071;SDS011;52656;52.610;10.236;2023-04-25T01:39:15;12.75;;;5.45;;
49071;SDS011;52656;52.610;10.236;2023-04-25T01:41:42;19.08;;;5.55;;
49071;SDS011;52656;52.610;10.236;2023-04-25T01:44:07;15.75;;;5.68;;
49071;SDS011;52656;52.610;10.236;2023-04-25T01:46:33;15.77;;;5.75;;
49071;SDS011;52656;52.610;10.236;2023-04-25T01:48:59;11.73;;;4.95;;
49071;SDS011;52656;52.610;10.236;2023-04-25T01:51:24;17.65;;;5.78;;
49071;SDS011;52656;52.610;10.236;2023-04-25T01:53:50;13.82;;;5.60;;
49071;SDS011;52656;52.610;10.236;2023-04-25T01:56:16;15.18;;;5.40;;
49071;SDS011;52656;52.610;10.236;2023-04-25T01:58:42;14.23;;;5.38;;
49071;SDS011;52656;52.610;10.236;2023-04-25T02:01:08;11.55;;;5.13;;
49071;SDS011;52656;52.610;10.236;2023-04-25T02:03:34;14.45;;;5.45;;
49071;SDS011;52656;52.610;10.236;2023-04-25T02:05:59;14.27;;;6.03;;
49071;SDS011;52656;52.610;10.236;2023-04-25T02:08:25;14.48;;;6.20;;
49071;SDS011;52656;52.610;10.236;2023-04-25T02:10:51;13.52;;;5.40;;
49071;SDS011;52656;52.610;10.236;2023-04-25T02:13:17;19.40;;;5.68;;
49071;SDS011;52656;52.610;10.236;2023-04-25T02:15:42;12.75;;;6.30;;
49071;SDS011;52656;52.610;10.236;2023-04-25T02:18:07;13.55;;;6.88;;
49071;SDS011;52656;52.610;10.236;2023-04-25T02:20:35;15.90;;;6.22;;
49071;SDS011;52656;52.610;10.236;2023-04-25T02:23:01;11.20;;;5.88;;
49071;SDS011;52656;52.610;10.236;2023-04-25T02:25:27;15.68;;;6.13;;
49071;SDS011;52656;52.610;10.236;2023-04-25T02:27:52;16.63;;;6.63;;
49071;SDS011;52656;52.610;10.236;2023-04-25T02:30:17;11.43;;;5.50;;
49071;SDS011;52656;52.610;10.236;2023-04-25T02:32:43;15.07;;;6.10;;
49071;SDS011;52656;52.610;10.236;2023-04-25T02:35:08;17.20;;;5.83;;
49071;SDS011;52656;52.610;10.236;2023-04-25T02:40:00;17.60;;;6.57;;
49071;SDS011;52656;52.610;10.236;2023-04-25T02:42:26;12.73;;;5.80;;
49071;SDS011;52656;52.610;10.236;2023-04-25T02:44:52;15.00;;;7.03;;
49071;SDS011;52656;52.610;10.236;2023-04-25T02:47:17;12.77;;;6.18;;
49071;SDS011;52656;52.610;10.236;2023-04-25T02:49:43;13.02;;;5.65;;
49071;SDS011;52656;52.610;10.236;2023-04-25T02:52:08;17.07;;;6.73;;
49071;SDS011;52656;52.610;10.236;2023-04-25T02:54:33;14.68;;;5.90;;
49071;SDS011;52656;52.610;10.236;2023-04-25T02:56:59;13.10;;;5.63;;
49071;SDS011;52656;52.610;10.236;2023-04-25T02:59:25;17.08;;;5.90;;
49071;SDS011;52656;52.610;10.236;2023-04-25T03:01:51;14.57;;;5.57;;
49071;SDS011;52656;52.610;10.236;2023-04-25T03:04:16;16.80;;;5.80;;
49071;SDS011;52656;52.610;10.236;2023-04-25T03:06:43;16.65;;;5.32;;
49071;SDS011;52656;52.610;10.236;2023-04-25T03:09:09;19.58;;;5.20;;
49071;SDS011;52656;52.610;10.236;2023-04-25T03:11:34;17.05;;;4.82;;
49071;SDS011;52656;52.610;10.236;2023-04-25T03:14:00;16.53;;;5.00;;
49071;SDS011;52656;52.610;10.236;2023-04-25T03:16:25;21.17;;;5.40;;
49071;SDS011;52656;52.610;10.236;2023-04-25T03:18:50;20.15;;;5.00;;
49071;SDS011;52656;52.610;10.236;2023-04-25T03:21:16;24.30;;;5.90;;
49071;SDS011;52656;52.610;10.236;2023-04-25T03:23:42;23.25;;;6.40;;
49071;SDS011;52656;52.610;10.236;2023-04-25T03:26:07;28.10;;;5.22;;
49071;SDS011;52656;52.610;10.236;2023-04-25T03:28:32;16.13;;;5.55;;
49071;SDS011;52656;52.610;10.236;2023-04-25T03:30:58;18.10;;;5.00;;
49071;SDS011;52656;52.610;10.236;2023-04-25T03:33:23;22.88;;;5.50;;
49071;SDS011;52656;52.610;10.236;2023-04-25T03:35:48;20.70;;;5.72;;
49071;SDS011;52656;52.610;10.236;2023-04-25T03:38:15;19.75;;;4.72;;
49071;SDS011;52656;52.610;10.236;2023-04-25T03:40:40;16.08;;;5.18;;
49071;SDS011;52656;52.610;10.236;2023-04-25T03:43:05;21.00;;;5.50;;
49071;SDS011;52656;52.610;10.236;2023-04-25T03:45:31;26.43;;;6.17;;
49071;SDS011;52656;52.610;10.236;2023-04-25T03:47:56;15.18;;;4.75;;
49071;SDS011;52656;52.610;10.236;2023-04-25T03:50:21;20.13;;;4.77;;
49071;SDS011;52656;52.610;10.236;2023-04-25T03:52:47;21.67;;;5.25;;
49071;SDS011;52656;52.610;10.236;2023-04-25T03:55:12;21.60;;;4.75;;
49071;SDS011;52656;52.610;10.236;2023-04-25T03:57:37;21.77;;;5.53;;
49071;SDS011;52656;52.610;10.236;2023-04-25T04:00:03;19.27;;;5.47;;
49071;SDS011;52656;52.610;10.236;2023-04-25T04:02:29;19.45;;;6.18;;
49071;SDS011;52656;52.610;10.236;2023-04-25T04:04:54;19.35;;;5.13;;
49071;SDS011;52656;52.610;10.236;2023-04-25T04:07:21;20.08;;;5.30;;
49071;SDS011;52656;52.610;10.236;2023-04-25T04:09:47;19.98;;;6.28;;
49071;SDS011;52656;52.610;10.236;2023-04-25T04:12:12;24.07;;;5.93;;
49071;SDS011;52656;52.610;10.236;2023-04-25T04:14:37;23.73;;;5.37;;
49071;SDS011;52656;52.610;10.236;2023-04-25T04:17:03;20.70;;;5.78;;
49071;SDS011;52656;52.610;10.236;2023-04-25T04:19:28;17.15;;;5.72;;
49071;SDS011;52656;52.610;10.236;2023-04-25T04:21:53;24.80;;;6.07;;
49071;SDS011;52656;52.610;10.236;2023-04-25T04:24:19;24.70;;;5.80;;
49071;SDS011;52656;52.610;10.236;2023-04-25T04:26:44;27.00;;;5.63;;
49071;SDS011;52656;52.610;10.236;2023-04-25T04:29:10;22.88;;;6.57;;
49071;SDS011;52656;52.610;10.236;2023-04-25T04:34:01;17.88;;;5.40;;
49071;SDS011;52656;52.610;10.236;2023-04-25T04:36:27;21.33;;;5.55;;
49071;SDS011;52656;52.610;10.236;2023-04-25T04:38:52;18.40;;;5.25;;
49071;SDS011;52656;52.610;10.236;2023-04-25T04:41:18;20.85;;;5.05;;
49071;SDS011;52656;52.610;10.236;2023-04-25T04:43:44;18.00;;;5.10;;
49071;SDS011;52656;52.610;10.236;2023-04-25T04:46:10;17.10;;;5.20;;
49071;SDS011;52656;52.610;10.236;2023-04-25T04:48:35;23.55;;;4.95;;
49071;SDS011;52656;52.610;10.236;2023-04-25T04:51:01;14.75;;;5.25;;
49071;SDS011;52656;52.610;10.236;2023-04-25T04:53:26;20.67;;;5.43;;
49071;SDS011;52656;52.610;10.236;2023-04-25T04:55:52;19.92;;;5.65;;
49071;SDS011;52656;52.610;10.236;2023-04-25T04:58:17;21.27;;;5.57;;
49071;SDS011;52656;52.610;10.236;2023-04-25T05:00:43;23.60;;;5.15;;
49071;SDS011;52656;52.610;10.236;2023-04-25T05:03:08;25.63;;;5.30;;
49071;SDS011;52656;52.610;10.236;2023-04-25T05:05:33;19.57;;;4.53;;
49071;SDS011;52656;52.610;10.236;2023-04-25T05:07:59;20.52;;;4.85;;
49071;SDS011;52656;52.610;10.236;2023-04-25T05:10:25;21.08;;;5.75;;
49071;SDS011;52656;52.610;10.236;2023-04-25T05:12:50;14.00;;;5.03;;
49071;SDS011;52656;52.610;10.236;2023-04-25T05:15:16;23.33;;;5.60;;
49071;SDS011;52656;52.610;10.236;2023-04-25T05:17:41;22.60;;;5.25;;
49071;SDS011;52656;52.610;10.236;2023-04-25T05:20:07;23.63;;;4.85;;
49071;SDS011;52656;52.610;10.236;2023-04-25T05:22:36;20.42;;;5.40;;
49071;SDS011;52656;52.610;10.236;2023-04-25T05:25:01;18.35;;;5.38;;
49071;SDS011;52656;52.610;10.236;2023-04-25T05:27:28;20.58;;;6.22;;
49071;SDS011;52656;52.610;10.236;2023-04-25T05:29:53;25.83;;;5.13;;
49071;SDS011;52656;52.610;10.236;2023-04-25T05:32:18;19.20;;;5.00;;
49071;SDS011;52656;52.610;10.236;2023-04-25T05:34:44;14.82;;;4.68;;
49071;SDS011;52656;52.610;10.236;2023-04-25T05:37:09;22.92;;;4.85;;
49071;SDS011;52656;52.610;10.236;2023-04-25T05:39:34;19.58;;;4.78;;
49071;SDS011;52656;52.610;10.236;2023-04-25T05:42:00;21.88;;;4.43;;
49071;SDS011;52656;52.610;10.236;2023-04-25T05:44:26;24.40;;;5.43;;
49071;SDS011;52656;52.610;10.236;2023-04-25T05:46:52;17.08;;;5.25;;
49071;SDS011;52656;52.610;10.236;2023-04-25T05:49:17;17.50;;;4.80;;
49071;SDS011;52656;52.610;10.236;2023-04-25T05:51:42;17.53;;;4.23;;
49071;SDS011;52656;52.610;10.236;2023-04-25T05:54:08;21.73;;;4.85;;
49071;SDS011;52656;52.610;10.236;2023-04-25T05:56:33;20.27;;;4.50;;
49071;SDS011;52656;52.610;10.236;2023-04-25T05:58:58;22.35;;;5.90;;
49071;SDS011;52656;52.610;10.236;2023-04-25T06:01:24;18.33;;;4.40;;
49071;SDS011;52656;52.610;10.236;2023-04-25T06:03:49;10.73;;;3.90;;
49071;SDS011;52656;52.610;10.236;2023-04-25T06:06:16;13.32;;;4.03;;
49071;SDS011;52656;52.610;10.236;2023-04-25T06:11:07;18.13;;;4.13;;
49071;SDS011;52656;52.610;10.236;2023-04-25T06:15:57;13.07;;;3.67;;
49071;SDS011;52656;52.610;10.236;2023-04-25T06:20:48;12.13;;;3.13;;
49071;SDS011;52656;52.610;10.236;2023-04-25T06:25:38;18.02;;;4.10;;
49071;SDS011;52656;52.610;10.236;2023-04-25T06:30:29;18.67;;;3.70;;
49071;SDS011;52656;52.610;10.236;2023-04-25T06:32:54;15.68;;;3.10;;
49071;SDS011;52656;52.610;10.236;2023-04-25T06:37:45;15.77;;;3.70;;
49071;SDS011;52656;52.610;10.236;2023-04-25T06:40:10;15.55;;;3.28;;
49071;SDS011;52656;52.610;10.236;2023-04-25T06:45:01;10.32;;;3.58;;
49071;SDS011;52656;52.610;10.236;2023-04-25T06:49:52;16.88;;;3.78;;
49071;SDS011;52656;52.610;10.236;2023-04-25T06:52:17;15.63;;;3.63;;
49071;SDS011;52656;52.610;10.236;2023-04-25T06:57:08;7.78;;;2.78;;
49071;SDS011;52656;52.610;10.236;2023-04-25T07:01:59;11.35;;;2.78;;
49071;SDS011;52656;52.610;10.236;2023-04-25T07:06:50;12.65;;;3.10;;
49071;SDS011;52656;52.610;10.236;2023-04-25T07:11:40;12.52;;;3.13;;
49071;SDS011;52656;52.610;10.236;2023-04-25T07:14:06;10.10;;;3.13;;
49071;SDS011;52656;52.610;10.236;2023-04-25T07:16:31;8.63;;;2.60;;
49071;SDS011;52656;52.610;10.236;2023-04-25T07:21:22;12.77;;;3.08;;
49071;SDS011;52656;52.610;10.236;2023-04-25T07:26:12;9.98;;;2.78;;
49071;SDS011;52656;52.610;10.236;2023-04-25T07:31:03;12.57;;;2.70;;
49071;SDS011;52656;52.610;10.236;2023-04-25T07:35:54;14.10;;;3.92;;
49071;SDS011;52656;52.610;10.236;2023-04-25T07:38:20;14.20;;;3.05;;
49071;SDS011;52656;52.610;10.236;2023-04-25T07:43:12;13.07;;;3.15;;
49071;SDS011;52656;52.610;10.236;2023-04-25T07:45:41;10.57;;;3.05;;
49071;SDS011;52656;52.610;10.236;2023-04-25T07:48:07;11.60;;;3.15;;
49071;SDS011;52656;52.610;10.236;2023-04-25T07:52:58;13.57;;;2.70;;
49071;SDS011;52656;52.610;10.236;2023-04-25T07:57:48;13.57;;;2.83;;
49071;SDS011;52656;52.610;10.236;2023-04-25T08:00:14;13.20;;;2.80;;
49071;SDS011;52656;52.610;10.236;2023-04-25T08:02:40;10.13;;;2.88;;
49071;SDS011;52656;52.610;10.236;2023-04-25T08:05:05;11.48;;;3.25;;
49071;SDS011;52656;52.610;10.236;2023-04-25T08:07:33;10.68;;;3.05;;
49071;SDS011;52656;52.610;10.236;2023-04-25T08:12:23;8.95;;;2.53;;
49071;SDS011;52656;52.610;10.236;2023-04-25T08:17:15;8.93;;;2.85;;
49071;SDS011;52656;52.610;10.236;2023-04-25T08:19:40;9.93;;;2.28;;
49071;SDS011;52656;52.610;10.236;2023-04-25T08:22:05;6.88;;;2.70;;
49071;SDS011;52656;52.610;10.236;2023-04-25T08:24:31;10.60;;;2.72;;
49071;SDS011;52656;52.610;10.236;2023-04-25T08:26:56;8.43;;;2.30;;
49071;SDS011;52656;52.610;10.236;2023-04-25T08:29:23;10.85;;;2.40;;
49071;SDS011;52656;52.610;10.236;2023-04-25T08:31:50;8.00;;;2.20;;
49071;SDS011;52656;52.610;10.236;2023-04-25T08:34:17;6.78;;;2.58;;
49071;SDS011;52656;52.610;10.236;2023-04-25T08:36:43;13.90;;;3.05;;
49071;SDS011;52656;52.610;10.236;2023-04-25T08:39:08;10.10;;;2.63;;
49071;SDS011;52656;52.610;10.236;2023-04-25T08:41:34;7.32;;;2.28;;
49071;SDS011;52656;52.610;10.236;2023-04-25T08:44:01;10.63;;;2.40;;
49071;SDS011;52656;52.610;10.236;2023-04-25T08:46:28;11.55;;;2.45;;
49071;SDS011;52656;52.610;10.236;2023-04-25T08:48:54;8.25;;;2.30;;
49071;SDS011;52656;52.610;10.236;2023-04-25T08:51:25;8.25;;;2.50;;
49071;SDS011;52656;52.610;10.236;2023-04-25T08:53:53;10.90;;;2.70;;
49071;SDS011;52656;52.610;10.236;2023-04-25T08:56:18;10.05;;;2.33;;
49071;SDS011;52656;52.610;10.236;2023-04-25T08:58:50;6.50;;;2.20;;
49071;SDS011;52656;52.610;10.236;2023-04-25T09:01:15;6.43;;;2.08;;
49071;SDS011;52656;52.610;10.236;2023-04-25T09:03:42;7.80;;;2.10;;
49071;SDS011;52656;52.610;10.236;2023-04-25T09:06:09;8.02;;;2.58;;
49071;SDS011;52656;52.610;10.236;2023-04-25T09:08:36;6.05;;;1.90;;
49071;SDS011;52656;52.610;10.236;2023-04-25T09:11:01;7.90;;;2.15;;
49071;SDS011;52656;52.610;10.236;2023-04-25T09:13:28;8.35;;;2.33;;
49071;SDS011;52656;52.610;10.236;2023-04-25T09:15:54;7.38;;;2.05;;
49071;SDS011;52656;52.610;10.236;2023-04-25T09:18:27;8.88;;;2.58;;
49071;SDS011;52656;52.610;10.236;2023-04-25T09:21:10;7.85;;;2.10;;
49071;SDS011;52656;52.610;10.236;2023-04-25T09:23:54;6.82;;;1.90;;
49071;SDS011;52656;52.610;10.236;2023-04-25T09:26:20;11.45;;;2.33;;
49071;SDS011;52656;52.610;10.236;2023-04-25T09:28:46;8.48;;;2.50;;
49071;SDS011;52656;52.610;10.236;2023-04-25T09:31:20;10.80;;;2.03;;
49071;SDS011;52656;52.610;10.236;2023-04-25T09:33:46;8.32;;;2.10;;
49071;SDS011;52656;52.610;10.236;2023-04-25T09:38:42;9.07;;;2.13;;
49071;SDS011;52656;52.610;10.236;2023-04-25T09:41:09;9.18;;;2.05;;
49071;SDS011;52656;52.610;10.236;2023-04-25T09:43:35;6.63;;;2.03;;
49071;SDS011;52656;52.610;10.236;2023-04-25T09:48:26;8.50;;;2.20;;
49071;SDS011;52656;52.610;10.236;2023-04-25T09:53:31;8.70;;;1.77;;
49071;SDS011;52656;52.610;10.236;2023-04-25T09:55:59;5.18;;;1.75;;
49071;SDS011;52656;52.610;10.236;2023-04-25T09:58:25;5.72;;;2.10;;
49071;SDS011;52656;52.610;10.236;2023-04-25T10:00:54;6.63;;;1.98;;
49071;SDS011;52656;52.610;10.236;2023-04-25T10:03:24;5.55;;;1.70;;
49071;SDS011;52656;52.610;10.236;2023-04-25T10:05:51;7.78;;;1.90;;
49071;SDS011;52656;52.610;10.236;2023-04-25T10:08:17;4.75;;;2.00;;
49071;SDS011;52656;52.610;10.236;2023-04-25T10:10:44;6.40;;;2.00;;
49071;SDS011;52656;52.610;10.236;2023-04-25T10:13:11;4.75;;;1.70;;
49071;SDS011;52656;52.610;10.236;2023-04-25T10:15:39;6.20;;;1.92;;
49071;SDS011;52656;52.610;10.236;2023-04-25T10:18:06;6.57;;;1.95;;
49071;SDS011;52656;52.610;10.236;2023-04-25T10:20:31;4.30;;;1.75;;
49071;SDS011;52656;52.610;10.236;2023-04-25T10:22:58;8.93;;;1.80;;
49071;SDS011;52656;52.610;10.236;2023-04-25T10:25:36;7.45;;;1.90;;
49071;SDS011;52656;52.610;10.236;2023-04-25T10:28:03;8.13;;;2.38;;
49071;SDS011;52656;52.610;10.236;2023-04-25T10:30:28;5.63;;;1.60;;
49071;SDS011;52656;52.610;10.236;2023-04-25T10:32:54;7.13;;;1.63;;
49071;SDS011;52656;52.610;10.236;2023-04-25T10:35:38;6.00;;;1.63;;
49071;SDS011;52656;52.610;10.236;2023-04-25T10:38:04;8.52;;;2.33;;
49071;SDS011;52656;52.610;10.236;2023-04-25T10:40:30;5.43;;;1.77;;
49071;SDS011;52656;52.610;10.236;2023-04-25T10:43:33;7.03;;;1.80;;
49071;SDS011;52656;52.610;10.236;2023-04-25T10:46:01;9.93;;;1.92;;
49071;SDS011;52656;52.610;10.236;2023-04-25T10:48:29;6.95;;;2.35;;
49071;SDS011;52656;52.610;10.236;2023-04-25T10:51:06;7.20;;;2.35;;
49071;SDS011;52656;52.610;10.236;2023-04-25T10:53:35;8.75;;;2.38;;
49071;SDS011;52656;52.610;10.236;2023-04-25T10:58:33;7.38;;;2.05;;
49071;SDS011;52656;52.610;10.236;2023-04-25T11:03:25;5.82;;;1.60;;
49071;SDS011;52656;52.610;10.236;2023-04-25T11:08:17;10.25;;;1.98;;
49071;SDS011;52656;52.610;10.236;2023-04-25T11:10:59;7.47;;;2.20;;
49071;SDS011;52656;52.610;10.236;2023-04-25T11:15:54;5.90;;;1.48;;
49071;SDS011;52656;52.610;10.236;2023-04-25T11:20:46;4.22;;;1.35;;
49071;SDS011;52656;52.610;10.236;2023-04-25T11:23:13;4.85;;;1.33;;
49071;SDS011;52656;52.610;10.236;2023-04-25T11:28:03;5.35;;;1.40;;
49071;SDS011;52656;52.610;10.236;2023-04-25T11:32:55;4.63;;;1.48;;
49071;SDS011;52656;52.610;10.236;2023-04-25T11:37:48;7.07;;;1.30;;
49071;SDS011;52656;52.610;10.236;2023-04-25T11:42:41;4.32;;;1.70;;
49071;SDS011;52656;52.610;10.236;2023-04-25T11:45:09;5.30;;;1.63;;
49071;SDS011;52656;52.610;10.236;2023-04-25T11:47:35;5.38;;;1.58;;
49071;SDS011;52656;52.610;10.236;2023-04-25T11:52:42;3.88;;;1.25;;
49071;SDS011;52656;52.610;10.236;2023-04-25T11:55:10;4.50;;;1.48;;
49071;SDS011;52656;52.610;10.236;2023-04-25T11:57:39;5.75;;;1.80;;
49071;SDS011;52656;52.610;10.236;2023-04-25T12:00:07;6.35;;;2.17;;
49071;SDS011;52656;52.610;10.236;2023-04-25T12:02:34;5.38;;;1.70;;
49071;SDS011;52656;52.610;10.236;2023-04-25T12:05:00;6.15;;;1.80;;
49071;SDS011;52656;52.610;10.236;2023-04-25T12:09:55;5.82;;;2.15;;
49071;SDS011;52656;52.610;10.236;2023-04-25T12:14:46;4.90;;;1.60;;
49071;SDS011;52656;52.610;10.236;2023-04-25T12:17:16;4.78;;;1.30;;
49071;SDS011;52656;52.610;10.236;2023-04-25T12:24:45;6.93;;;1.33;;
49071;SDS011;52656;52.610;10.236;2023-04-25T12:29:35;4.33;;;1.20;;
49071;SDS011;52656;52.610;10.236;2023-04-25T12:34:26;4.85;;;1.40;;
49071;SDS011;52656;52.610;10.236;2023-04-25T12:39:21;4.68;;;1.67;;
49071;SDS011;52656;52.610;10.236;2023-04-25T12:41:48;3.47;;;1.30;;
49071;SDS011;52656;52.610;10.236;2023-04-25T12:44:14;6.38;;;1.48;;
49071;SDS011;52656;52.610;10.236;2023-04-25T12:49:06;3.95;;;1.27;;
49071;SDS011;52656;52.610;10.236;2023-04-25T12:51:35;11.85;;;1.70;;
49071;SDS011;52656;52.610;10.236;2023-04-25T12:54:01;2.58;;;0.98;;
49071;SDS011;52656;52.610;10.236;2023-04-25T12:56:28;4.85;;;1.38;;
49071;SDS011;52656;52.610;10.236;2023-04-25T12:58:54;5.28;;;1.10;;
49071;SDS011;52656;52.610;10.236;2023-04-25T13:03:45;5.20;;;1.30;;
49071;SDS011;52656;52.610;10.236;2023-04-25T13:06:11;7.65;;;1.50;;
49071;SDS011;52656;52.610;10.236;2023-04-25T13:08:37;4.35;;;1.30;;
49071;SDS011;52656;52.610;10.236;2023-04-25T13:13:29;4.07;;;1.10;;
49071;SDS011;52656;52.610;10.236;2023-04-25T13:18:20;4.18;;;1.10;;
49071;SDS011;52656;52.610;10.236;2023-04-25T13:23:11;1.67;;;0.90;;
49071;SDS011;52656;52.610;10.236;2023-04-25T13:28:02;2.33;;;1.10;;
49071;SDS011;52656;52.610;10.236;2023-04-25T13:32:53;3.75;;;1.00;;
49071;SDS011;52656;52.610;10.236;2023-04-25T13:35:21;1.58;;;1.02;;
49071;SDS011;52656;52.610;10.236;2023-04-25T13:40:11;4.30;;;1.30;;
49071;SDS011;52656;52.610;10.236;2023-04-25T13:45:02;4.53;;;1.50;;
49071;SDS011;52656;52.610;10.236;2023-04-25T13:49:53;3.28;;;1.20;;
49071;SDS011;52656;52.610;10.236;2023-04-25T13:54:44;4.78;;;1.40;;
49071;SDS011;52656;52.610;10.236;2023-04-25T13:59:36;4.82;;;1.30;;
49071;SDS011;52656;52.610;10.236;2023-04-25T14:04:27;3.85;;;1.35;;
49071;SDS011;52656;52.610;10.236;2023-04-25T14:09:18;3.42;;;1.40;;
49071;SDS011;52656;52.610;10.236;2023-04-25T14:11:45;5.72;;;1.77;;
49071;SDS011;52656;52.610;10.236;2023-04-25T14:16:37;4.38;;;1.27;;
49071;SDS011;52656;52.610;10.236;2023-04-25T14:21:28;6.65;;;1.55;;
49071;SDS011;52656;52.610;10.236;2023-04-25T14:23:56;4.75;;;1.70;;
49071;SDS011;52656;52.610;10.236;2023-04-25T14:28:47;6.78;;;1.45;;
49071;SDS011;52656;52.610;10.236;2023-04-25T14:33:37;4.15;;;1.20;;
49071;SDS011;52656;52.610;10.236;2023-04-25T14:36:06;7.50;;;1.40;;
49071;SDS011;52656;52.610;10.236;2023-04-25T14:40:57;5.38;;;1.40;;
49071;SDS011;52656;52.610;10.236;2023-04-25T14:45:47;4.95;;;1.65;;
49071;SDS011;52656;52.610;10.236;2023-04-25T14:50:38;3.67;;;1.30;;
49071;SDS011;52656;52.610;10.236;2023-04-25T14:55:29;9.70;;;1.63;;
49071;SDS011;52656;52.610;10.236;2023-04-25T15:00:21;4.13;;;1.20;;
49071;SDS011;52656;52.610;10.236;2023-04-25T15:02:50;4.63;;;1.77;;
49071;SDS011;52656;52.610;10.236;2023-04-25T15:05:15;2.65;;;1.17;;
49071;SDS011;52656;52.610;10.236;2023-04-25T15:10:09;3.30;;;1.20;;
49071;SDS011;52656;52.610;10.236;2023-04-25T15:12:40;7.43;;;1.17;;
49071;SDS011;52656;52.610;10.236;2023-04-25T15:17:36;5.70;;;1.30;;
49071;SDS011;52656;52.610;10.236;2023-04-25T15:20:06;5.85;;;1.30;;
49071;SDS011;52656;52.610;10.236;2023-04-25T15:22:32;5.72;;;1.40;;
49071;SDS011;52656;52.610;10.236;2023-04-25T15:27:23;3.83;;;1.20;;
49071;SDS011;52656;52.610;10.236;2023-04-25T15:29:49;4.05;;;1.10;;
49071;SDS011;52656;52.610;10.236;2023-04-25T15:32:14;3.25;;;1.42;;
49071;SDS011;52656;52.610;10.236;2023-04-25T15:37:05;2.67;;;1.27;;
49071;SDS011;52656;52.610;10.236;2023-04-25T15:39:30;5.03;;;1.20;;
49071;SDS011;52656;52.610;10.236;2023-04-25T15:44:22;3.65;;;1.42;;
49071;SDS011;52656;52.610;10.236;2023-04-25T15:49:12;3.65;;;1.13;;
49071;SDS011;52656;52.610;10.236;2023-04-25T15:54:03;6.32;;;1.20;;
49071;SDS011;52656;52.610;10.236;2023-04-25T15:58:53;3.65;;;1.48;;
49071;SDS011;52656;52.610;10.236;2023-04-25T16:03:48;5.40;;;1.42;;
49071;SDS011;52656;52.610;10.236;2023-04-25T16:08:39;3.22;;;1.48;;
49071;SDS011;52656;52.610;10.236;2023-04-25T16:13:30;3.88;;;1.30;;
49071;SDS011;52656;52.610;10.236;2023-04-25T16:15:57;4.93;;;1.42;;
49071;SDS011;52656;52.610;10.236;2023-04-25T16:20:48;3.13;;;1.80;;
49071;SDS011;52656;52.610;10.236;2023-04-25T16:25:40;5.25;;;1.92;;
49071;SDS011;52656;52.610;10.236;2023-04-25T16:28:07;3.33;;;1.35;;
49071;SDS011;52656;52.610;10.236;2023-04-25T16:32:57;6.15;;;1.48;;
49071;SDS011;52656;52.610;10.236;2023-04-25T16:35:22;5.63;;;1.70;;
49071;SDS011;52656;52.610;10.236;2023-04-25T16:37:48;5.18;;;1.70;;
49071;SDS011;52656;52.610;10.236;2023-04-25T16:42:39;5.13;;;2.03;;
49071;SDS011;52656;52.610;10.236;2023-04-25T16:45:04;5.65;;;1.50;;
49071;SDS011;52656;52.610;10.236;2023-04-25T16:49:58;4.35;;;1.50;;
49071;SDS011;52656;52.610;10.236;2023-04-25T16:52:25;6.68;;;1.80;;
49071;SDS011;52656;52.610;10.236;2023-04-25T16:57:16;7.50;;;1.90;;
49071;SDS011;52656;52.610;10.236;2023-04-25T16:59:41;4.80;;;1.70;;
49071;SDS011;52656;52.610;10.236;2023-04-25T17:02:07;6.43;;;1.70;;
49071;SDS011;52656;52.610;10.236;2023-04-25T17:04:36;7.35;;;1.80;;
49071;SDS011;52656;52.610;10.236;2023-04-25T17:07:01;7.82;;;2.08;;
49071;SDS011;52656;52.610;10.236;2023-04-25T17:09:26;5.40;;;1.83;;
49071;SDS011;52656;52.610;10.236;2023-04-25T17:14:17;4.68;;;1.63;;
49071;SDS011;52656;52.610;10.236;2023-04-25T17:16:42;3.90;;;1.58;;
49071;SDS011;52656;52.610;10.236;2023-04-25T17:19:07;3.17;;;1.23;;
49071;SDS011;52656;52.610;10.236;2023-04-25T17:21:33;5.10;;;1.92;;
49071;SDS011;52656;52.610;10.236;2023-04-25T17:23:58;8.63;;;1.55;;
49071;SDS011;52656;52.610;10.236;2023-04-25T17:26:24;3.38;;;1.38;;
49071;SDS011;52656;52.610;10.236;2023-04-25T17:28:50;5.60;;;1.55;;
49071;SDS011;52656;52.610;10.236;2023-04-25T17:31:16;4.15;;;1.17;;
49071;SDS011;52656;52.610;10.236;2023-04-25T17:36:06;3.25;;;1.30;;
49071;SDS011;52656;52.610;10.236;2023-04-25T17:38:32;2.28;;;1.10;;
49071;SDS011;52656;52.610;10.236;2023-04-25T17:40:59;6.22;;;1.35;;
49071;SDS011;52656;52.610;10.236;2023-04-25T17:43:25;7.53;;;1.40;;
49071;SDS011;52656;52.610;10.236;2023-04-25T17:45:51;5.93;;;1.60;;
49071;SDS011;52656;52.610;10.236;2023-04-25T17:48:17;8.80;;;1.95;;
49071;SDS011;52656;52.610;10.236;2023-04-25T17:50:42;7.32;;;1.67;;
49071;SDS011;52656;52.610;10.236;2023-04-25T17:53:07;3.55;;;1.25;;
49071;SDS011;52656;52.610;10.236;2023-04-25T17:55:33;4.63;;;1.70;;